sensor_id;sensor_type;location;lat;lon;timestamp;P1;durP1;ratioP1;P2;durP2;ratioP2
15645;SDS011;7922;43.622;1.476;2024-01-06T00:01:41;15.80;;;12.07;;
15645;SDS011;7922;43.622;1.476;2024-01-06T00:04:06;28.10;;;25.13;;
15645;SDS011;7922;43.622;1.476;2024-01-06T00:06:31;27.37;;;24.70;;
15645;SDS011;7922;43.622;1.476;2024-01-06T00:08:57;7.17;;;5.03;;
15645;SDS011;7922;43.622;1.476;2024-01-06T00:11:22;7.07;;;5.03;;
15645;SDS011;7922;43.622;1.476;2024-01-06T00:13:48;6.30;;;3.87;;
15645;SDS011;7922;43.622;1.476;2024-01-06T00:16:16;7.17;;;6.30;;
15645;SDS011;7922;43.622;1.476;2024-01-06T00:18:42;5.33;;;3.23;;
15645;SDS011;7922;43.622;1.476;2024-01-06T00:21:08;8.43;;;4.27;;
15645;SDS011;7922;43.622;1.476;2024-01-06T00:23:33;4.87;;;3.80;;
15645;SDS011;7922;43.622;1.476;2024-01-06T00:25:58;6.37;;;3.63;;
15645;SDS011;7922;43.622;1.476;2024-01-06T00:28:24;6.23;;;3.13;;
15645;SDS011;7922;43.622;1.476;2024-01-06T00:30:49;5.37;;;3.33;;
15645;SDS011;7922;43.622;1.476;2024-01-06T00:33:14;9.53;;;6.77;;
15645;SDS011;7922;43.622;1.476;2024-01-06T00:35:40;3.53;;;2.93;;
15645;SDS011;7922;43.622;1.476;2024-01-06T00:38:05;8.10;;;4.10;;
15645;SDS011;7922;43.622;1.476;2024-01-06T00:40:31;5.10;;;3.37;;
15645;SDS011;7922;43.622;1.476;2024-01-06T00:42:56;5.10;;;2.90;;
15645;SDS011;7922;43.622;1.476;2024-01-06T00:45:21;7.73;;;4.07;;
15645;SDS011;7922;43.622;1.476;2024-01-06T00:47:46;5.30;;;3.20;;
15645;SDS011;7922;43.622;1.476;2024-01-06T00:50:12;6.30;;;4.00;;
15645;SDS011;7922;43.622;1.476;2024-01-06T00:52:37;3.80;;;3.30;;
15645;SDS011;7922;43.622;1.476;2024-01-06T00:55:02;5.97;;;3.17;;
15645;SDS011;7922;43.622;1.476;2024-01-06T00:57:28;5.80;;;3.67;;
15645;SDS011;7922;43.622;1.476;2024-01-06T00:59:53;7.83;;;3.97;;
15645;SDS011;7922;43.622;1.476;2024-01-06T01:02:18;9.90;;;5.47;;
15645;SDS011;7922;43.622;1.476;2024-01-06T01:04:44;7.27;;;3.83;;
15645;SDS011;7922;43.622;1.476;2024-01-06T01:07:09;6.10;;;3.30;;
15645;SDS011;7922;43.622;1.476;2024-01-06T01:09:34;7.10;;;3.07;;
15645;SDS011;7922;43.622;1.476;2024-01-06T01:12:00;5.70;;;3.00;;
15645;SDS011;7922;43.622;1.476;2024-01-06T01:14:25;9.03;;;6.03;;
15645;SDS011;7922;43.622;1.476;2024-01-06T01:16:50;5.43;;;3.60;;
15645;SDS011;7922;43.622;1.476;2024-01-06T01:19:15;6.80;;;4.27;;
15645;SDS011;7922;43.622;1.476;2024-01-06T01:21:41;6.97;;;3.90;;
15645;SDS011;7922;43.622;1.476;2024-01-06T01:24:06;6.30;;;3.40;;
15645;SDS011;7922;43.622;1.476;2024-01-06T01:26:31;5.40;;;3.47;;
15645;SDS011;7922;43.622;1.476;2024-01-06T01:28:57;4.20;;;3.13;;
15645;SDS011;7922;43.622;1.476;2024-01-06T01:31:22;6.43;;;3.40;;
15645;SDS011;7922;43.622;1.476;2024-01-06T01:33:47;5.23;;;3.20;;
15645;SDS011;7922;43.622;1.476;2024-01-06T01:36:13;8.33;;;3.20;;
15645;SDS011;7922;43.622;1.476;2024-01-06T01:38:38;4.77;;;3.53;;
15645;SDS011;7922;43.622;1.476;2024-01-06T01:41:03;3.90;;;2.83;;
15645;SDS011;7922;43.622;1.476;2024-01-06T01:43:28;5.17;;;3.07;;
15645;SDS011;7922;43.622;1.476;2024-01-06T01:45:54;6.53;;;3.10;;
15645;SDS011;7922;43.622;1.476;2024-01-06T01:48:20;6.73;;;3.03;;
15645;SDS011;7922;43.622;1.476;2024-01-06T01:50:46;6.33;;;3.27;;
15645;SDS011;7922;43.622;1.476;2024-01-06T01:53:12;6.07;;;3.43;;
15645;SDS011;7922;43.622;1.476;2024-01-06T01:55:38;5.67;;;3.33;;
15645;SDS011;7922;43.622;1.476;2024-01-06T01:58:05;3.67;;;3.00;;
15645;SDS011;7922;43.622;1.476;2024-01-06T02:00:31;6.40;;;3.30;;
15645;SDS011;7922;43.622;1.476;2024-01-06T02:02:57;6.67;;;2.83;;
15645;SDS011;7922;43.622;1.476;2024-01-06T02:05:23;5.40;;;2.90;;
15645;SDS011;7922;43.622;1.476;2024-01-06T02:07:49;6.57;;;3.20;;
15645;SDS011;7922;43.622;1.476;2024-01-06T02:10:14;7.73;;;3.07;;
15645;SDS011;7922;43.622;1.476;2024-01-06T02:12:39;5.00;;;2.90;;
15645;SDS011;7922;43.622;1.476;2024-01-06T02:15:05;4.93;;;3.20;;
15645;SDS011;7922;43.622;1.476;2024-01-06T02:17:30;6.60;;;3.17;;
15645;SDS011;7922;43.622;1.476;2024-01-06T02:19:56;4.90;;;3.13;;
15645;SDS011;7922;43.622;1.476;2024-01-06T02:22:21;4.30;;;3.13;;
15645;SDS011;7922;43.622;1.476;2024-01-06T02:24:46;6.77;;;2.80;;
15645;SDS011;7922;43.622;1.476;2024-01-06T02:27:12;6.37;;;2.87;;
15645;SDS011;7922;43.622;1.476;2024-01-06T02:29:37;6.27;;;3.13;;
15645;SDS011;7922;43.622;1.476;2024-01-06T02:32:02;5.03;;;3.17;;
15645;SDS011;7922;43.622;1.476;2024-01-06T02:34:28;4.30;;;3.13;;
15645;SDS011;7922;43.622;1.476;2024-01-06T02:36:53;6.63;;;2.97;;
15645;SDS011;7922;43.622;1.476;2024-01-06T02:39:18;5.10;;;3.10;;
15645;SDS011;7922;43.622;1.476;2024-01-06T02:41:43;3.73;;;2.73;;
15645;SDS011;7922;43.622;1.476;2024-01-06T02:44:09;5.43;;;2.93;;
15645;SDS011;7922;43.622;1.476;2024-01-06T02:46:34;6.00;;;3.10;;
15645;SDS011;7922;43.622;1.476;2024-01-06T02:48:59;7.17;;;3.53;;
15645;SDS011;7922;43.622;1.476;2024-01-06T02:51:24;5.40;;;3.13;;
15645;SDS011;7922;43.622;1.476;2024-01-06T02:53:50;4.57;;;2.77;;
15645;SDS011;7922;43.622;1.476;2024-01-06T02:56:15;8.23;;;3.10;;
15645;SDS011;7922;43.622;1.476;2024-01-06T02:58:40;3.80;;;2.90;;
15645;SDS011;7922;43.622;1.476;2024-01-06T03:01:06;7.73;;;3.30;;
15645;SDS011;7922;43.622;1.476;2024-01-06T03:03:31;5.43;;;2.90;;
15645;SDS011;7922;43.622;1.476;2024-01-06T03:05:57;5.40;;;3.00;;
15645;SDS011;7922;43.622;1.476;2024-01-06T03:08:22;4.70;;;2.97;;
15645;SDS011;7922;43.622;1.476;2024-01-06T03:10:48;5.23;;;2.90;;
15645;SDS011;7922;43.622;1.476;2024-01-06T03:13:14;5.70;;;2.80;;
15645;SDS011;7922;43.622;1.476;2024-01-06T03:15:39;4.20;;;2.60;;
15645;SDS011;7922;43.622;1.476;2024-01-06T03:18:04;7.37;;;2.70;;
15645;SDS011;7922;43.622;1.476;2024-01-06T03:20:30;10.73;;;3.00;;
15645;SDS011;7922;43.622;1.476;2024-01-06T03:22:55;5.97;;;3.00;;
15645;SDS011;7922;43.622;1.476;2024-01-06T03:25:20;5.63;;;3.07;;
15645;SDS011;7922;43.622;1.476;2024-01-06T03:27:45;5.00;;;3.23;;
15645;SDS011;7922;43.622;1.476;2024-01-06T03:30:11;5.43;;;3.13;;
15645;SDS011;7922;43.622;1.476;2024-01-06T03:32:37;3.30;;;3.00;;
15645;SDS011;7922;43.622;1.476;2024-01-06T03:35:02;6.10;;;3.20;;
15645;SDS011;7922;43.622;1.476;2024-01-06T03:37:28;3.37;;;3.03;;
15645;SDS011;7922;43.622;1.476;2024-01-06T03:39:53;6.10;;;3.20;;
15645;SDS011;7922;43.622;1.476;2024-01-06T03:42:18;6.20;;;3.10;;
15645;SDS011;7922;43.622;1.476;2024-01-06T03:44:43;8.47;;;2.97;;
15645;SDS011;7922;43.622;1.476;2024-01-06T03:47:09;4.80;;;2.87;;
15645;SDS011;7922;43.622;1.476;2024-01-06T03:49:34;6.27;;;3.10;;
15645;SDS011;7922;43.622;1.476;2024-01-06T03:51:59;3.50;;;2.90;;
15645;SDS011;7922;43.622;1.476;2024-01-06T03:54:25;3.33;;;2.93;;
15645;SDS011;7922;43.622;1.476;2024-01-06T03:56:50;7.60;;;3.47;;
15645;SDS011;7922;43.622;1.476;2024-01-06T03:59:15;4.57;;;2.93;;
15645;SDS011;7922;43.622;1.476;2024-01-06T04:01:40;4.67;;;2.80;;
15645;SDS011;7922;43.622;1.476;2024-01-06T04:04:06;6.40;;;3.53;;
15645;SDS011;7922;43.622;1.476;2024-01-06T04:06:32;4.03;;;3.03;;
15645;SDS011;7922;43.622;1.476;2024-01-06T04:08:57;4.50;;;2.67;;
15645;SDS011;7922;43.622;1.476;2024-01-06T04:11:23;5.30;;;2.90;;
15645;SDS011;7922;43.622;1.476;2024-01-06T04:13:48;9.33;;;3.00;;
15645;SDS011;7922;43.622;1.476;2024-01-06T04:16:13;6.90;;;2.90;;
15645;SDS011;7922;43.622;1.476;2024-01-06T04:18:39;4.50;;;3.10;;
15645;SDS011;7922;43.622;1.476;2024-01-06T04:21:04;4.60;;;3.07;;
15645;SDS011;7922;43.622;1.476;2024-01-06T04:23:29;4.37;;;3.03;;
15645;SDS011;7922;43.622;1.476;2024-01-06T04:25:55;6.80;;;3.37;;
15645;SDS011;7922;43.622;1.476;2024-01-06T04:28:20;8.90;;;3.30;;
15645;SDS011;7922;43.622;1.476;2024-01-06T04:30:45;7.00;;;3.20;;
15645;SDS011;7922;43.622;1.476;2024-01-06T04:33:11;4.17;;;3.17;;
15645;SDS011;7922;43.622;1.476;2024-01-06T04:35:38;5.73;;;3.13;;
15645;SDS011;7922;43.622;1.476;2024-01-06T04:38:04;5.80;;;3.10;;
15645;SDS011;7922;43.622;1.476;2024-01-06T04:40:29;7.07;;;3.13;;
15645;SDS011;7922;43.622;1.476;2024-01-06T04:42:54;5.77;;;3.13;;
15645;SDS011;7922;43.622;1.476;2024-01-06T04:45:19;11.73;;;3.30;;
15645;SDS011;7922;43.622;1.476;2024-01-06T04:47:45;5.47;;;3.33;;
15645;SDS011;7922;43.622;1.476;2024-01-06T04:50:10;8.37;;;3.43;;
15645;SDS011;7922;43.622;1.476;2024-01-06T04:52:35;8.17;;;3.03;;
15645;SDS011;7922;43.622;1.476;2024-01-06T04:55:01;6.27;;;2.97;;
15645;SDS011;7922;43.622;1.476;2024-01-06T04:57:26;4.67;;;2.90;;
15645;SDS011;7922;43.622;1.476;2024-01-06T04:59:51;7.77;;;3.60;;
15645;SDS011;7922;43.622;1.476;2024-01-06T05:02:17;7.17;;;3.20;;
15645;SDS011;7922;43.622;1.476;2024-01-06T05:04:42;7.67;;;3.23;;
15645;SDS011;7922;43.622;1.476;2024-01-06T05:07:07;5.53;;;3.10;;
15645;SDS011;7922;43.622;1.476;2024-01-06T05:09:32;7.50;;;3.83;;
15645;SDS011;7922;43.622;1.476;2024-01-06T05:11:58;5.50;;;3.00;;
15645;SDS011;7922;43.622;1.476;2024-01-06T05:14:23;4.83;;;3.43;;
15645;SDS011;7922;43.622;1.476;2024-01-06T05:16:48;8.87;;;2.97;;
15645;SDS011;7922;43.622;1.476;2024-01-06T05:19:14;8.50;;;3.20;;
15645;SDS011;7922;43.622;1.476;2024-01-06T05:21:39;8.97;;;3.17;;
15645;SDS011;7922;43.622;1.476;2024-01-06T05:24:04;6.33;;;2.90;;
15645;SDS011;7922;43.622;1.476;2024-01-06T05:26:30;5.00;;;2.87;;
15645;SDS011;7922;43.622;1.476;2024-01-06T05:28:55;6.80;;;3.43;;
15645;SDS011;7922;43.622;1.476;2024-01-06T05:31:20;6.37;;;3.30;;
15645;SDS011;7922;43.622;1.476;2024-01-06T05:33:46;7.43;;;3.20;;
15645;SDS011;7922;43.622;1.476;2024-01-06T05:36:11;6.00;;;3.57;;
15645;SDS011;7922;43.622;1.476;2024-01-06T05:38:36;9.33;;;3.67;;
15645;SDS011;7922;43.622;1.476;2024-01-06T05:41:02;5.43;;;3.87;;
15645;SDS011;7922;43.622;1.476;2024-01-06T05:43:27;7.10;;;3.10;;
15645;SDS011;7922;43.622;1.476;2024-01-06T05:45:52;5.33;;;3.20;;
15645;SDS011;7922;43.622;1.476;2024-01-06T05:48:18;6.60;;;3.50;;
15645;SDS011;7922;43.622;1.476;2024-01-06T05:50:43;4.97;;;3.43;;
15645;SDS011;7922;43.622;1.476;2024-01-06T05:53:09;6.37;;;3.33;;
15645;SDS011;7922;43.622;1.476;2024-01-06T05:55:34;6.27;;;3.10;;
15645;SDS011;7922;43.622;1.476;2024-01-06T05:57:59;5.13;;;2.90;;
15645;SDS011;7922;43.622;1.476;2024-01-06T06:00:25;8.63;;;3.70;;
15645;SDS011;7922;43.622;1.476;2024-01-06T06:02:50;7.23;;;3.30;;
15645;SDS011;7922;43.622;1.476;2024-01-06T06:05:15;8.27;;;3.10;;
15645;SDS011;7922;43.622;1.476;2024-01-06T06:07:41;5.10;;;3.20;;
15645;SDS011;7922;43.622;1.476;2024-01-06T06:10:08;7.33;;;3.50;;
15645;SDS011;7922;43.622;1.476;2024-01-06T06:12:35;8.33;;;3.80;;
15645;SDS011;7922;43.622;1.476;2024-01-06T06:15:00;6.90;;;3.97;;
15645;SDS011;7922;43.622;1.476;2024-01-06T06:17:26;5.63;;;3.60;;
15645;SDS011;7922;43.622;1.476;2024-01-06T06:19:51;5.30;;;3.17;;
15645;SDS011;7922;43.622;1.476;2024-01-06T06:22:16;6.33;;;3.40;;
15645;SDS011;7922;43.622;1.476;2024-01-06T06:24:42;8.13;;;3.77;;
15645;SDS011;7922;43.622;1.476;2024-01-06T06:27:07;4.77;;;3.67;;
15645;SDS011;7922;43.622;1.476;2024-01-06T06:29:32;11.43;;;3.50;;
15645;SDS011;7922;43.622;1.476;2024-01-06T06:31:57;4.13;;;3.57;;
15645;SDS011;7922;43.622;1.476;2024-01-06T06:34:23;4.37;;;3.50;;
15645;SDS011;7922;43.622;1.476;2024-01-06T06:36:48;7.40;;;3.50;;
15645;SDS011;7922;43.622;1.476;2024-01-06T06:39:13;3.70;;;3.40;;
15645;SDS011;7922;43.622;1.476;2024-01-06T06:41:38;4.93;;;3.53;;
15645;SDS011;7922;43.622;1.476;2024-01-06T06:44:04;6.33;;;3.77;;
15645;SDS011;7922;43.622;1.476;2024-01-06T06:46:29;4.10;;;3.10;;
15645;SDS011;7922;43.622;1.476;2024-01-06T06:48:54;4.57;;;3.83;;
15645;SDS011;7922;43.622;1.476;2024-01-06T06:51:20;4.03;;;3.63;;
15645;SDS011;7922;43.622;1.476;2024-01-06T06:53:45;5.70;;;3.63;;
15645;SDS011;7922;43.622;1.476;2024-01-06T06:56:10;4.63;;;3.37;;
15645;SDS011;7922;43.622;1.476;2024-01-06T06:58:35;5.90;;;3.37;;
15645;SDS011;7922;43.622;1.476;2024-01-06T07:01:01;4.57;;;3.30;;
15645;SDS011;7922;43.622;1.476;2024-01-06T07:03:26;5.13;;;2.57;;
15645;SDS011;7922;43.622;1.476;2024-01-06T07:05:51;6.03;;;2.80;;
15645;SDS011;7922;43.622;1.476;2024-01-06T07:08:17;4.73;;;3.37;;
15645;SDS011;7922;43.622;1.476;2024-01-06T07:10:42;5.00;;;2.90;;
15645;SDS011;7922;43.622;1.476;2024-01-06T07:13:07;4.93;;;3.10;;
15645;SDS011;7922;43.622;1.476;2024-01-06T07:15:33;4.70;;;2.63;;
15645;SDS011;7922;43.622;1.476;2024-01-06T07:17:58;4.50;;;3.00;;
15645;SDS011;7922;43.622;1.476;2024-01-06T07:20:23;3.63;;;2.63;;
15645;SDS011;7922;43.622;1.476;2024-01-06T07:22:49;5.20;;;2.70;;
15645;SDS011;7922;43.622;1.476;2024-01-06T07:25:14;3.80;;;2.80;;
15645;SDS011;7922;43.622;1.476;2024-01-06T07:27:39;5.67;;;2.83;;
15645;SDS011;7922;43.622;1.476;2024-01-06T07:30:05;5.27;;;3.30;;
15645;SDS011;7922;43.622;1.476;2024-01-06T07:32:30;5.77;;;3.13;;
15645;SDS011;7922;43.622;1.476;2024-01-06T07:34:56;2.60;;;2.40;;
15645;SDS011;7922;43.622;1.476;2024-01-06T07:37:21;3.07;;;2.20;;
15645;SDS011;7922;43.622;1.476;2024-01-06T07:39:46;4.23;;;2.33;;
15645;SDS011;7922;43.622;1.476;2024-01-06T07:42:11;2.33;;;2.00;;
15645;SDS011;7922;43.622;1.476;2024-01-06T07:44:37;3.87;;;2.30;;
15645;SDS011;7922;43.622;1.476;2024-01-06T07:47:02;3.20;;;2.23;;
15645;SDS011;7922;43.622;1.476;2024-01-06T07:49:27;2.33;;;2.10;;
15645;SDS011;7922;43.622;1.476;2024-01-06T07:51:53;3.70;;;2.07;;
15645;SDS011;7922;43.622;1.476;2024-01-06T07:54:18;5.17;;;1.90;;
15645;SDS011;7922;43.622;1.476;2024-01-06T07:56:43;3.73;;;2.20;;
15645;SDS011;7922;43.622;1.476;2024-01-06T07:59:09;4.13;;;2.30;;
15645;SDS011;7922;43.622;1.476;2024-01-06T08:01:35;2.80;;;2.10;;
15645;SDS011;7922;43.622;1.476;2024-01-06T08:04:00;2.43;;;2.23;;
15645;SDS011;7922;43.622;1.476;2024-01-06T08:06:25;2.63;;;1.70;;
15645;SDS011;7922;43.622;1.476;2024-01-06T08:08:51;3.63;;;2.20;;
15645;SDS011;7922;43.622;1.476;2024-01-06T08:11:16;3.10;;;1.90;;
15645;SDS011;7922;43.622;1.476;2024-01-06T08:13:41;1.93;;;1.70;;
15645;SDS011;7922;43.622;1.476;2024-01-06T08:16:07;1.97;;;1.77;;
15645;SDS011;7922;43.622;1.476;2024-01-06T08:18:32;2.27;;;1.60;;
15645;SDS011;7922;43.622;1.476;2024-01-06T08:20:57;2.03;;;1.57;;
15645;SDS011;7922;43.622;1.476;2024-01-06T08:23:23;2.90;;;1.50;;
15645;SDS011;7922;43.622;1.476;2024-01-06T08:25:48;1.83;;;1.60;;
15645;SDS011;7922;43.622;1.476;2024-01-06T08:28:13;1.67;;;1.53;;
15645;SDS011;7922;43.622;1.476;2024-01-06T08:30:39;2.13;;;1.70;;
15645;SDS011;7922;43.622;1.476;2024-01-06T08:33:04;1.60;;;1.50;;
15645;SDS011;7922;43.622;1.476;2024-01-06T08:35:29;2.77;;;1.70;;
15645;SDS011;7922;43.622;1.476;2024-01-06T08:37:55;1.93;;;1.60;;
15645;SDS011;7922;43.622;1.476;2024-01-06T08:40:20;2.30;;;1.57;;
15645;SDS011;7922;43.622;1.476;2024-01-06T08:42:45;2.37;;;1.50;;
15645;SDS011;7922;43.622;1.476;2024-01-06T08:45:10;1.77;;;1.67;;
15645;SDS011;7922;43.622;1.476;2024-01-06T08:47:36;2.13;;;1.60;;
15645;SDS011;7922;43.622;1.476;2024-01-06T08:50:02;1.90;;;1.70;;
15645;SDS011;7922;43.622;1.476;2024-01-06T08:52:27;4.00;;;1.80;;
15645;SDS011;7922;43.622;1.476;2024-01-06T08:54:53;3.00;;;1.90;;
15645;SDS011;7922;43.622;1.476;2024-01-06T08:57:18;2.10;;;1.90;;
15645;SDS011;7922;43.622;1.476;2024-01-06T08:59:43;2.57;;;2.13;;
15645;SDS011;7922;43.622;1.476;2024-01-06T09:02:08;2.63;;;1.80;;
15645;SDS011;7922;43.622;1.476;2024-01-06T09:04:34;2.77;;;2.30;;
15645;SDS011;7922;43.622;1.476;2024-01-06T09:06:59;3.40;;;2.00;;
15645;SDS011;7922;43.622;1.476;2024-01-06T09:09:24;2.90;;;1.60;;
15645;SDS011;7922;43.622;1.476;2024-01-06T09:11:50;1.97;;;1.80;;
15645;SDS011;7922;43.622;1.476;2024-01-06T09:14:16;2.87;;;1.80;;
15645;SDS011;7922;43.622;1.476;2024-01-06T09:16:42;2.10;;;1.80;;
15645;SDS011;7922;43.622;1.476;2024-01-06T09:19:07;2.07;;;1.87;;
15645;SDS011;7922;43.622;1.476;2024-01-06T09:21:32;2.77;;;1.83;;
15645;SDS011;7922;43.622;1.476;2024-01-06T09:23:58;3.50;;;2.20;;
15645;SDS011;7922;43.622;1.476;2024-01-06T09:26:23;4.00;;;2.97;;
15645;SDS011;7922;43.622;1.476;2024-01-06T09:28:48;3.40;;;2.10;;
15645;SDS011;7922;43.622;1.476;2024-01-06T09:31:14;3.10;;;2.27;;
15645;SDS011;7922;43.622;1.476;2024-01-06T09:33:39;3.00;;;2.20;;
15645;SDS011;7922;43.622;1.476;2024-01-06T09:36:04;3.50;;;2.40;;
15645;SDS011;7922;43.622;1.476;2024-01-06T09:38:30;4.00;;;1.87;;
15645;SDS011;7922;43.622;1.476;2024-01-06T09:40:55;2.80;;;1.73;;
15645;SDS011;7922;43.622;1.476;2024-01-06T09:43:22;2.70;;;2.00;;
15645;SDS011;7922;43.622;1.476;2024-01-06T09:45:48;3.90;;;1.83;;
15645;SDS011;7922;43.622;1.476;2024-01-06T09:48:23;2.30;;;1.70;;
15645;SDS011;7922;43.622;1.476;2024-01-06T09:50:54;3.43;;;2.17;;
15645;SDS011;7922;43.622;1.476;2024-01-06T09:53:21;3.60;;;2.27;;
15645;SDS011;7922;43.622;1.476;2024-01-06T09:55:51;2.60;;;1.93;;
15645;SDS011;7922;43.622;1.476;2024-01-06T09:58:16;4.87;;;1.97;;
15645;SDS011;7922;43.622;1.476;2024-01-06T10:00:41;3.50;;;2.03;;
15645;SDS011;7922;43.622;1.476;2024-01-06T10:03:07;3.33;;;2.00;;
15645;SDS011;7922;43.622;1.476;2024-01-06T10:05:32;3.80;;;2.03;;
15645;SDS011;7922;43.622;1.476;2024-01-06T10:07:57;2.10;;;1.90;;
15645;SDS011;7922;43.622;1.476;2024-01-06T10:10:23;3.00;;;2.27;;
15645;SDS011;7922;43.622;1.476;2024-01-06T10:12:49;3.67;;;2.80;;
15645;SDS011;7922;43.622;1.476;2024-01-06T10:15:18;3.83;;;2.20;;
15645;SDS011;7922;43.622;1.476;2024-01-06T10:17:44;4.30;;;2.00;;
15645;SDS011;7922;43.622;1.476;2024-01-06T10:20:11;2.73;;;2.40;;
15645;SDS011;7922;43.622;1.476;2024-01-06T10:22:37;3.03;;;2.40;;
15645;SDS011;7922;43.622;1.476;2024-01-06T10:25:05;6.53;;;2.60;;
15645;SDS011;7922;43.622;1.476;2024-01-06T10:27:33;4.77;;;2.27;;
15645;SDS011;7922;43.622;1.476;2024-01-06T10:29:59;4.17;;;2.60;;
15645;SDS011;7922;43.622;1.476;2024-01-06T10:32:25;4.53;;;2.30;;
15645;SDS011;7922;43.622;1.476;2024-01-06T10:34:50;6.57;;;2.53;;
15645;SDS011;7922;43.622;1.476;2024-01-06T10:37:16;4.17;;;2.30;;
15645;SDS011;7922;43.622;1.476;2024-01-06T10:39:42;2.20;;;2.00;;
15645;SDS011;7922;43.622;1.476;2024-01-06T10:42:07;2.20;;;1.67;;
15645;SDS011;7922;43.622;1.476;2024-01-06T10:44:33;2.33;;;1.50;;
15645;SDS011;7922;43.622;1.476;2024-01-06T10:46:59;3.03;;;2.00;;
15645;SDS011;7922;43.622;1.476;2024-01-06T10:49:26;4.97;;;1.70;;
15645;SDS011;7922;43.622;1.476;2024-01-06T10:51:53;1.70;;;1.50;;
15645;SDS011;7922;43.622;1.476;2024-01-06T10:54:19;3.27;;;1.80;;
15645;SDS011;7922;43.622;1.476;2024-01-06T10:56:46;3.17;;;1.97;;
15645;SDS011;7922;43.622;1.476;2024-01-06T10:59:13;5.33;;;1.83;;
15645;SDS011;7922;43.622;1.476;2024-01-06T11:01:39;2.53;;;1.97;;
15645;SDS011;7922;43.622;1.476;2024-01-06T11:04:06;3.70;;;1.97;;
15645;SDS011;7922;43.622;1.476;2024-01-06T11:06:32;2.43;;;1.70;;
15645;SDS011;7922;43.622;1.476;2024-01-06T11:11:30;3.07;;;1.97;;
15645;SDS011;7922;43.622;1.476;2024-01-06T11:14:42;2.73;;;1.50;;
15645;SDS011;7922;43.622;1.476;2024-01-06T11:16:43;4.20;;;1.80;;
15645;SDS011;7922;43.622;1.476;2024-01-06T11:24:49;4.80;;;1.90;;
15645;SDS011;7922;43.622;1.476;2024-01-06T11:27:22;3.40;;;2.00;;
15645;SDS011;7922;43.622;1.476;2024-01-06T11:29:53;2.67;;;1.93;;
15645;SDS011;7922;43.622;1.476;2024-01-06T11:32:28;3.43;;;1.97;;
15645;SDS011;7922;43.622;1.476;2024-01-06T11:34:55;4.13;;;1.90;;
15645;SDS011;7922;43.622;1.476;2024-01-06T11:37:36;3.53;;;1.90;;
15645;SDS011;7922;43.622;1.476;2024-01-06T11:40:10;3.07;;;2.40;;
15645;SDS011;7922;43.622;1.476;2024-01-06T11:42:56;4.00;;;2.13;;
15645;SDS011;7922;43.622;1.476;2024-01-06T11:45:23;3.13;;;2.03;;
15645;SDS011;7922;43.622;1.476;2024-01-06T11:47:50;2.50;;;2.30;;
15645;SDS011;7922;43.622;1.476;2024-01-06T11:50:20;2.53;;;1.90;;
15645;SDS011;7922;43.622;1.476;2024-01-06T11:52:46;2.00;;;1.80;;
15645;SDS011;7922;43.622;1.476;2024-01-06T11:55:11;3.90;;;2.47;;
15645;SDS011;7922;43.622;1.476;2024-01-06T11:57:37;3.03;;;2.53;;
15645;SDS011;7922;43.622;1.476;2024-01-06T12:00:02;2.00;;;1.80;;
15645;SDS011;7922;43.622;1.476;2024-01-06T12:02:28;5.40;;;2.57;;
15645;SDS011;7922;43.622;1.476;2024-01-06T12:04:54;3.53;;;2.50;;
15645;SDS011;7922;43.622;1.476;2024-01-06T12:07:21;3.93;;;2.63;;
15645;SDS011;7922;43.622;1.476;2024-01-06T12:09:47;3.47;;;2.67;;
15645;SDS011;7922;43.622;1.476;2024-01-06T12:12:15;4.33;;;2.30;;
15645;SDS011;7922;43.622;1.476;2024-01-06T12:14:41;2.27;;;1.90;;
15645;SDS011;7922;43.622;1.476;2024-01-06T12:17:06;2.67;;;1.73;;
15645;SDS011;7922;43.622;1.476;2024-01-06T12:19:32;3.93;;;1.90;;
15645;SDS011;7922;43.622;1.476;2024-01-06T12:21:58;3.70;;;2.13;;
15645;SDS011;7922;43.622;1.476;2024-01-06T12:24:24;3.37;;;2.00;;
15645;SDS011;7922;43.622;1.476;2024-01-06T12:26:52;2.47;;;1.60;;
15645;SDS011;7922;43.622;1.476;2024-01-06T12:29:18;3.17;;;1.93;;
15645;SDS011;7922;43.622;1.476;2024-01-06T12:31:43;2.67;;;2.17;;
15645;SDS011;7922;43.622;1.476;2024-01-06T12:34:11;2.97;;;2.00;;
15645;SDS011;7922;43.622;1.476;2024-01-06T12:36:37;3.17;;;1.93;;
15645;SDS011;7922;43.622;1.476;2024-01-06T12:39:04;2.40;;;1.80;;
15645;SDS011;7922;43.622;1.476;2024-01-06T12:41:29;2.10;;;1.90;;
15645;SDS011;7922;43.622;1.476;2024-01-06T12:43:55;2.63;;;1.90;;
15645;SDS011;7922;43.622;1.476;2024-01-06T12:46:20;3.00;;;1.90;;
15645;SDS011;7922;43.622;1.476;2024-01-06T12:48:45;4.13;;;2.13;;
15645;SDS011;7922;43.622;1.476;2024-01-06T12:51:11;2.83;;;1.80;;
15645;SDS011;7922;43.622;1.476;2024-01-06T12:53:36;2.00;;;1.90;;
15645;SDS011;7922;43.622;1.476;2024-01-06T12:56:01;3.17;;;2.57;;
15645;SDS011;7922;43.622;1.476;2024-01-06T12:58:27;3.90;;;2.50;;
15645;SDS011;7922;43.622;1.476;2024-01-06T13:00:52;3.60;;;2.00;;
15645;SDS011;7922;43.622;1.476;2024-01-06T13:03:17;3.90;;;2.07;;
15645;SDS011;7922;43.622;1.476;2024-01-06T13:05:42;5.47;;;2.23;;
15645;SDS011;7922;43.622;1.476;2024-01-06T13:08:08;3.03;;;1.93;;
15645;SDS011;7922;43.622;1.476;2024-01-06T13:10:33;3.20;;;2.53;;
15645;SDS011;7922;43.622;1.476;2024-01-06T13:12:58;2.93;;;2.13;;
15645;SDS011;7922;43.622;1.476;2024-01-06T13:15:24;7.13;;;3.00;;
15645;SDS011;7922;43.622;1.476;2024-01-06T13:17:49;6.30;;;2.77;;
15645;SDS011;7922;43.622;1.476;2024-01-06T13:20:14;4.10;;;2.60;;
15645;SDS011;7922;43.622;1.476;2024-01-06T13:22:39;3.33;;;2.27;;
15645;SDS011;7922;43.622;1.476;2024-01-06T13:25:05;4.63;;;2.60;;
15645;SDS011;7922;43.622;1.476;2024-01-06T13:27:30;3.03;;;2.73;;
15645;SDS011;7922;43.622;1.476;2024-01-06T13:29:56;2.33;;;2.13;;
15645;SDS011;7922;43.622;1.476;2024-01-06T13:32:21;2.77;;;2.10;;
15645;SDS011;7922;43.622;1.476;2024-01-06T13:34:46;2.07;;;1.90;;
15645;SDS011;7922;43.622;1.476;2024-01-06T13:37:11;3.93;;;2.10;;
15645;SDS011;7922;43.622;1.476;2024-01-06T13:39:37;2.23;;;1.70;;
15645;SDS011;7922;43.622;1.476;2024-01-06T13:42:02;2.53;;;2.00;;
15645;SDS011;7922;43.622;1.476;2024-01-06T13:44:28;4.10;;;2.17;;
15645;SDS011;7922;43.622;1.476;2024-01-06T13:46:53;2.07;;;1.70;;
15645;SDS011;7922;43.622;1.476;2024-01-06T13:49:18;1.80;;;1.67;;
15645;SDS011;7922;43.622;1.476;2024-01-06T13:51:44;2.13;;;1.97;;
15645;SDS011;7922;43.622;1.476;2024-01-06T13:54:09;2.20;;;1.77;;
15645;SDS011;7922;43.622;1.476;2024-01-06T13:56:35;2.73;;;1.63;;
15645;SDS011;7922;43.622;1.476;2024-01-06T13:59:00;3.87;;;1.97;;
15645;SDS011;7922;43.622;1.476;2024-01-06T14:01:26;3.50;;;2.00;;
15645;SDS011;7922;43.622;1.476;2024-01-06T14:03:51;2.53;;;1.93;;
15645;SDS011;7922;43.622;1.476;2024-01-06T14:06:17;2.50;;;1.80;;
15645;SDS011;7922;43.622;1.476;2024-01-06T14:08:42;3.13;;;1.70;;
15645;SDS011;7922;43.622;1.476;2024-01-06T14:11:08;3.57;;;2.00;;
15645;SDS011;7922;43.622;1.476;2024-01-06T14:13:33;2.37;;;1.63;;
15645;SDS011;7922;43.622;1.476;2024-01-06T14:15:58;3.40;;;2.13;;
15645;SDS011;7922;43.622;1.476;2024-01-06T14:18:24;2.97;;;1.63;;
15645;SDS011;7922;43.622;1.476;2024-01-06T14:20:49;2.27;;;1.90;;
15645;SDS011;7922;43.622;1.476;2024-01-06T14:23:14;3.97;;;2.27;;
15645;SDS011;7922;43.622;1.476;2024-01-06T14:25:39;2.83;;;1.70;;
15645;SDS011;7922;43.622;1.476;2024-01-06T14:28:05;3.73;;;2.07;;
15645;SDS011;7922;43.622;1.476;2024-01-06T14:30:30;2.50;;;2.30;;
15645;SDS011;7922;43.622;1.476;2024-01-06T14:32:56;4.70;;;2.03;;
15645;SDS011;7922;43.622;1.476;2024-01-06T14:35:21;3.33;;;2.37;;
15645;SDS011;7922;43.622;1.476;2024-01-06T14:37:46;2.50;;;2.13;;
15645;SDS011;7922;43.622;1.476;2024-01-06T14:40:11;3.40;;;2.13;;
15645;SDS011;7922;43.622;1.476;2024-01-06T14:42:37;2.43;;;1.90;;
15645;SDS011;7922;43.622;1.476;2024-01-06T14:45:02;2.67;;;1.93;;
15645;SDS011;7922;43.622;1.476;2024-01-06T14:47:28;3.30;;;2.10;;
15645;SDS011;7922;43.622;1.476;2024-01-06T14:49:53;2.47;;;2.20;;
15645;SDS011;7922;43.622;1.476;2024-01-06T14:52:19;2.27;;;2.03;;
15645;SDS011;7922;43.622;1.476;2024-01-06T14:54:44;3.13;;;1.93;;
15645;SDS011;7922;43.622;1.476;2024-01-06T14:57:10;2.17;;;1.83;;
15645;SDS011;7922;43.622;1.476;2024-01-06T14:59:35;2.10;;;1.90;;